createdAt,value
2022-08-08T00:00:55.026Z,99.90
2022-08-08T00:08:24.434Z,99.90
2022-08-08T00:11:18.622Z,99.90
2022-08-08T00:14:15.710Z,99.90
2022-08-08T00:17:22.483Z,99.90
2022-08-08T00:20:14.667Z,99.90
2022-08-08T00:23:08.037Z,99.90
2022-08-08T00:26:01.961Z,99.90
2022-08-08T00:28:53.131Z,99.90
2022-08-08T00:32:20.845Z,99.90
2022-08-08T00:35:30.410Z,99.90
2022-08-08T00:41:12.737Z,99.90
2022-08-08T00:42:59.633Z,99.90
2022-08-08T00:46:17.024Z,99.90
2022-08-08T00:49:42.302Z,99.90
2022-08-08T00:52:51.745Z,99.90
2022-08-08T00:56:30.251Z,99.90
2022-08-08T00:59:48.741Z,99.90
2022-08-08T01:03:57.376Z,99.90
2022-08-08T01:07:10.654Z,99.90
2022-08-08T01:10:52.221Z,99.90
2022-08-08T01:14:08.550Z,99.90
2022-08-08T01:17:55.653Z,99.90
2022-08-08T01:21:04.862Z,99.90
2022-08-08T01:24:27.320Z,99.90
2022-08-08T01:28:00.263Z,99.90
2022-08-08T01:32:13.806Z,99.90
2022-08-08T01:35:48.111Z,99.90
2022-08-08T01:39:34.843Z,99.90
2022-08-08T01:42:36.909Z,99.90
2022-08-08T01:45:58.336Z,99.90
2022-08-08T01:48:59.989Z,99.90
2022-08-08T01:52:27.566Z,99.90
2022-08-08T01:55:25.753Z,99.90
2022-08-08T01:58:38.388Z,99.90
2022-08-08T02:02:00.128Z,99.90
2022-08-08T02:05:01.665Z,99.90
2022-08-08T02:08:07.027Z,99.90
2022-08-08T02:11:23.543Z,99.90
2022-08-08T02:20:07.443Z,99.90
2022-08-08T02:23:04.581Z,99.90
2022-08-08T02:26:01.349Z,99.90
2022-08-08T02:29:46.798Z,99.90
2022-08-08T02:32:59.266Z,99.90
2022-08-08T02:36:04.962Z,99.90
2022-08-08T02:39:42.633Z,99.90
2022-08-08T02:44:34.691Z,99.90
2022-08-08T02:46:46.818Z,99.90
2022-08-08T02:50:04.878Z,99.90
2022-08-08T02:53:10.423Z,99.90
2022-08-08T02:56:39.343Z,99.90
2022-08-08T03:00:26.881Z,99.90
2022-08-08T03:05:02.701Z,99.90
2022-08-08T03:07:41.667Z,99.90
2022-08-08T03:11:31.791Z,99.90
2022-08-08T03:16:00.784Z,99.90
2022-08-08T03:18:07.398Z,99.90
2022-08-08T03:20:58.077Z,99.90
2022-08-08T03:23:59.942Z,99.90
2022-08-08T03:26:56.485Z,99.90
2022-08-08T03:29:56.453Z,99.90
2022-08-08T03:33:07.911Z,99.90
2022-08-08T03:36:19.508Z,99.90
2022-08-08T03:39:15.597Z,99.90
2022-08-08T03:42:28.115Z,99.90
2022-08-08T03:46:07.065Z,99.90
2022-08-08T03:53:47.796Z,99.90
2022-08-08T03:56:37.378Z,99.90
2022-08-08T03:59:30.719Z,99.90
2022-08-08T04:02:33.346Z,99.90
2022-08-08T04:05:28.873Z,99.90
2022-08-08T04:08:33.614Z,99.90
2022-08-08T04:11:25.512Z,99.90
2022-08-08T04:14:33.346Z,99.90
2022-08-08T04:17:46.425Z,99.90
2022-08-08T04:20:29.959Z,99.90
2022-08-08T04:23:18.256Z,99.90
2022-08-08T04:26:09.324Z,99.90
2022-08-08T04:28:57.977Z,99.90
2022-08-08T04:31:59.555Z,99.90
2022-08-08T04:34:55.670Z,99.90
2022-08-08T04:37:49.339Z,99.90
2022-08-08T04:40:40.284Z,99.90
2022-08-08T04:43:46.128Z,99.90
2022-08-08T04:46:39.498Z,99.90
2022-08-08T04:49:28.969Z,99.90
2022-08-08T04:52:35.571Z,99.90
2022-08-08T04:55:37.547Z,99.90
2022-08-08T04:58:34.404Z,99.90
2022-08-08T05:01:22.953Z,99.90
2022-08-08T05:05:02.371Z,99.90
2022-08-08T05:07:53.480Z,99.90
2022-08-08T05:10:43.839Z,99.90
2022-08-08T05:13:31.737Z,99.90
2022-08-08T05:16:51.481Z,99.90
2022-08-08T05:20:09.734Z,99.90
2022-08-08T05:22:37.571Z,99.90
2022-08-08T05:25:27.065Z,99.90
2022-08-08T05:28:55.941Z,99.90
2022-08-08T05:32:04.460Z,99.90
2022-08-08T05:34:50.472Z,99.90
2022-08-08T05:43:39.758Z,99.90
2022-08-08T05:46:17.797Z,99.90
2022-08-08T05:49:11.261Z,99.90
2022-08-08T05:51:59.946Z,99.90
2022-08-08T05:54:50.297Z,99.90
2022-08-08T05:58:05.417Z,99.90
2022-08-08T06:00:56.898Z,99.90
2022-08-08T06:03:53.514Z,99.90
2022-08-08T06:06:48.172Z,99.90
2022-08-08T06:09:59.177Z,99.90
2022-08-08T06:12:47.379Z,99.90
2022-08-08T06:20:28.908Z,99.90
2022-08-08T06:23:17.534Z,99.90
2022-08-08T06:26:38.490Z,99.90
2022-08-08T06:29:59.777Z,99.90
2022-08-08T06:37:55.967Z,99.90
2022-08-08T06:40:53.586Z,99.90
2022-08-08T06:48:58.425Z,99.90
2022-08-08T06:51:52.637Z,99.90
2022-08-08T06:54:49.002Z,99.90
2022-08-08T06:57:54.906Z,99.90
2022-08-08T07:00:48.851Z,99.90
2022-08-08T07:04:35.283Z,99.90
2022-08-08T07:06:57.242Z,99.90
2022-08-08T07:09:59.271Z,99.90
2022-08-08T07:12:54.479Z,99.90
2022-08-08T07:16:05.955Z,99.90
2022-08-08T07:19:07.277Z,99.90
2022-08-08T07:22:05.368Z,99.90
2022-08-08T07:25:06.811Z,99.90
2022-08-08T07:28:02.748Z,99.90
2022-08-08T07:30:58.741Z,99.90
2022-08-08T07:33:53.440Z,99.90
2022-08-08T07:36:50.257Z,99.90
2022-08-08T07:39:56.177Z,99.90
2022-08-08T07:42:53.030Z,99.40
2022-08-08T07:46:05.715Z,99.90
2022-08-08T07:48:51.074Z,99.80
2022-08-08T07:51:44.897Z,99.90
2022-08-08T07:54:49.167Z,99.90
2022-08-08T07:57:48.333Z,99.90
2022-08-08T08:00:41.796Z,97.20
2022-08-08T08:03:43.771Z,97.50
2022-08-08T08:11:53.811Z,95.70
2022-08-08T08:14:54.679Z,96.90
2022-08-08T08:17:49.393Z,96.90
2022-08-08T08:20:44.046Z,95.10
2022-08-08T08:23:41.087Z,93.90
2022-08-08T08:26:30.567Z,93.60
2022-08-08T08:29:19.503Z,93.80
2022-08-08T08:32:08.912Z,91.60
2022-08-08T08:34:58.942Z,92.20
2022-08-08T08:38:05.843Z,93.30
2022-08-08T08:40:54.210Z,92.70
2022-08-08T08:43:45.173Z,92.40
2022-08-08T08:46:34.991Z,91.90
2022-08-08T08:49:33.480Z,91.80
2022-08-08T08:57:42.381Z,90.40
2022-08-08T09:01:03.165Z,89.00
2022-08-08T09:03:50.403Z,89.20
2022-08-08T09:06:50.422Z,88.10
2022-08-08T09:09:47.718Z,90.90
2022-08-08T09:12:47.396Z,89.00
2022-08-08T09:15:41.518Z,90.00
2022-08-08T09:18:31.603Z,89.20
2022-08-08T09:21:59.393Z,90.10
2022-08-08T09:24:28.860Z,88.50
2022-08-08T09:31:56.915Z,89.70
2022-08-08T09:34:52.300Z,89.20
2022-08-08T09:38:01.165Z,86.80
2022-08-08T09:41:01.728Z,87.30
2022-08-08T09:44:05.233Z,85.80
2022-08-08T09:48:02.444Z,88.40
2022-08-08T09:50:16.149Z,84.60
2022-08-08T09:53:14.387Z,86.50
2022-08-08T09:56:21.626Z,81.80
2022-08-08T09:59:50.505Z,81.60
2022-08-08T10:02:29.397Z,81.70
2022-08-08T10:06:32.437Z,81.30
2022-08-08T10:09:30.605Z,85.80
2022-08-08T10:12:37.680Z,80.00
2022-08-08T10:15:26.865Z,80.50
2022-08-08T10:18:26.120Z,79.60
2022-08-08T10:21:22.599Z,85.10
2022-08-08T10:24:29.269Z,77.20
2022-08-08T10:27:43.158Z,82.40
2022-08-08T10:30:59.780Z,83.80
2022-08-08T10:34:19.024Z,76.90
2022-08-08T10:36:47.070Z,79.70
2022-08-08T10:39:54.475Z,78.20
2022-08-08T10:42:44.709Z,81.10
2022-08-08T10:45:55.719Z,75.80
2022-08-08T10:48:57.559Z,76.90
2022-08-08T10:51:50.918Z,80.10
2022-08-08T10:54:41.320Z,76.00
2022-08-08T10:57:45.382Z,77.10
2022-08-08T11:00:52.383Z,76.40
2022-08-08T11:04:01.137Z,78.10
2022-08-08T11:07:00.365Z,78.30
2022-08-08T11:09:47.957Z,77.50
2022-08-08T11:12:38.359Z,81.10
2022-08-08T11:15:58.844Z,80.30
2022-08-08T11:18:51.534Z,81.30
2022-08-08T11:21:45.239Z,81.90
2022-08-08T11:24:45.642Z,78.90
2022-08-08T11:27:37.289Z,77.70
2022-08-08T11:30:27.463Z,77.30
2022-08-08T11:33:19.883Z,77.90
2022-08-08T11:36:09.281Z,78.70
2022-08-08T11:39:01.495Z,79.80
2022-08-08T11:41:50.860Z,80.80
2022-08-08T11:44:41.071Z,80.10
2022-08-08T11:47:39.671Z,79.90
2022-08-08T11:50:52.471Z,79.60
2022-08-08T11:53:54.921Z,79.60
2022-08-08T11:56:46.333Z,81.90
2022-08-08T12:00:00.899Z,77.30
2022-08-08T12:03:00.894Z,79.00
2022-08-08T12:07:05.305Z,77.40
2022-08-08T12:10:12.847Z,77.30
2022-08-08T12:13:04.382Z,79.90
2022-08-08T12:15:53.647Z,79.90
2022-08-08T12:18:47.472Z,82.10
2022-08-08T12:22:00.008Z,80.70
2022-08-08T12:24:54.012Z,81.60
2022-08-08T12:27:45.761Z,81.20
2022-08-08T12:30:35.979Z,82.30
2022-08-08T12:33:37.093Z,83.70
2022-08-08T12:36:24.801Z,81.40
2022-08-08T12:40:00.976Z,81.30
2022-08-08T12:42:47.484Z,81.90
2022-08-08T12:45:59.129Z,83.10
2022-08-08T12:49:22.220Z,83.90
2022-08-08T12:52:01.978Z,80.70
2022-08-08T12:54:49.427Z,80.50
2022-08-08T12:57:56.080Z,80.20
2022-08-08T13:00:45.407Z,80.00
2022-08-08T13:10:10.992Z,80.10
2022-08-08T13:13:05.694Z,79.50
2022-08-08T13:15:56.701Z,77.80
2022-08-08T13:18:56.990Z,79.30
2022-08-08T13:22:16.492Z,82.50
2022-08-08T13:25:05.317Z,75.90
2022-08-08T13:27:54.663Z,76.70
2022-08-08T13:30:45.389Z,80.30
2022-08-08T13:33:42.629Z,77.30
2022-08-08T13:36:30.716Z,79.70
2022-08-08T13:39:44.031Z,78.70
2022-08-08T13:42:36.464Z,76.70
2022-08-08T13:45:24.370Z,80.20
2022-08-08T13:48:14.590Z,78.40
2022-08-08T13:51:33.998Z,79.70
2022-08-08T14:00:07.439Z,79.70
2022-08-08T14:03:00.129Z,82.50
2022-08-08T14:05:58.800Z,80.80
2022-08-08T14:08:50.693Z,79.40
2022-08-08T14:16:34.613Z,80.60
2022-08-08T14:19:57.127Z,80.20
2022-08-08T14:22:42.971Z,80.10
2022-08-08T14:25:31.799Z,79.50
2022-08-08T14:28:22.696Z,79.80
2022-08-08T14:31:23.252Z,79.00
2022-08-08T14:34:29.615Z,80.50
2022-08-08T14:37:18.383Z,80.50
2022-08-08T14:45:33.091Z,76.50
2022-08-08T14:48:52.562Z,79.00
2022-08-08T14:51:52.975Z,78.90
2022-08-08T14:54:47.618Z,80.90
2022-08-08T14:58:03.147Z,77.80
2022-08-08T15:01:23.306Z,77.70
2022-08-08T15:04:13.099Z,77.60
2022-08-08T15:07:00.600Z,79.30
2022-08-08T15:09:51.693Z,78.50
2022-08-08T15:12:39.478Z,78.90
2022-08-08T15:20:22.054Z,78.00
2022-08-08T15:23:12.738Z,77.50
2022-08-08T15:26:03.603Z,77.60
2022-08-08T15:28:52.991Z,77.80
2022-08-08T15:31:41.661Z,78.20
2022-08-08T15:34:48.907Z,77.80
2022-08-08T15:37:37.804Z,78.00
2022-08-08T15:40:28.421Z,77.60
2022-08-08T15:43:18.693Z,77.30
2022-08-08T15:46:27.319Z,77.30
2022-08-08T15:49:22.411Z,80.30
2022-08-08T15:52:12.771Z,78.60
2022-08-08T15:55:01.803Z,77.60
2022-08-08T15:57:50.825Z,78.10
2022-08-08T16:00:38.209Z,78.10
2022-08-08T16:03:34.725Z,78.50
2022-08-08T16:13:20.819Z,80.00
2022-08-08T16:15:03.838Z,80.40
2022-08-08T16:18:06.329Z,80.10
2022-08-08T16:21:00.310Z,78.00
2022-08-08T16:29:15.286Z,78.40
2022-08-08T16:32:03.003Z,77.60
2022-08-08T16:34:55.358Z,80.60
2022-08-08T16:37:47.649Z,78.40
2022-08-08T16:40:34.947Z,78.90
2022-08-08T16:43:22.779Z,78.20
2022-08-08T16:46:36.966Z,78.90
2022-08-08T16:49:18.991Z,77.20
2022-08-08T16:55:03.609Z,78.20
2022-08-08T16:55:54.428Z,77.20
2022-08-08T16:58:21.839Z,79.50
2022-08-08T17:01:15.840Z,78.40
2022-08-08T17:04:03.691Z,78.70
2022-08-08T17:06:50.882Z,78.30
2022-08-08T17:09:45.474Z,79.50
2022-08-08T17:12:33.983Z,78.20
2022-08-08T17:15:23.925Z,78.30
2022-08-08T17:18:15.972Z,80.10
2022-08-08T17:21:03.642Z,79.20
2022-08-08T17:23:58.410Z,80.30
2022-08-08T17:26:50.250Z,81.10
2022-08-08T17:35:54.662Z,80.10
2022-08-08T17:38:04.547Z,79.50
2022-08-08T17:40:51.883Z,80.50
2022-08-08T17:44:01.319Z,80.30
2022-08-08T17:46:50.647Z,81.00
2022-08-08T17:50:52.577Z,81.00
2022-08-08T17:53:43.250Z,81.10
2022-08-08T17:56:31.536Z,80.60
2022-08-08T17:59:19.209Z,80.80
2022-08-08T18:02:16.419Z,81.30
2022-08-08T18:10:31.279Z,81.00
2022-08-08T18:13:19.232Z,81.30
2022-08-08T18:16:06.998Z,81.50
2022-08-08T18:18:57.374Z,82.20
2022-08-08T18:27:06.357Z,84.60
2022-08-08T18:30:06.107Z,83.40
2022-08-08T18:32:54.622Z,82.90
2022-08-08T18:35:48.510Z,83.10
2022-08-08T18:43:54.127Z,83.90
2022-08-08T18:46:55.151Z,85.00
2022-08-08T18:49:58.828Z,85.40
2022-08-08T18:52:47.363Z,86.30
2022-08-08T18:56:05.486Z,88.40
2022-08-08T18:58:55.282Z,89.80
2022-08-08T19:02:27.256Z,90.20
2022-08-08T19:04:49.574Z,90.70
2022-08-08T19:07:38.888Z,91.10
2022-08-08T19:10:41.386Z,91.30
2022-08-08T19:18:51.794Z,92.20
2022-08-08T19:21:49.729Z,92.50
2022-08-08T19:24:48.730Z,92.80
2022-08-08T19:27:56.072Z,93.00
2022-08-08T19:36:08.790Z,93.70
2022-08-08T19:38:56.982Z,93.70
2022-08-08T19:41:44.728Z,94.20
2022-08-08T19:44:45.618Z,94.30
2022-08-08T19:53:46.761Z,94.20
2022-08-08T19:56:25.797Z,94.40
2022-08-08T19:59:23.607Z,94.60
2022-08-08T20:02:12.535Z,95.00
2022-08-08T20:10:29.815Z,94.90
2022-08-08T20:14:12.739Z,95.00
2022-08-08T20:16:29.522Z,95.20
2022-08-08T20:19:16.783Z,95.20
2022-08-08T20:22:05.170Z,95.60
2022-08-08T20:25:00.710Z,95.50
2022-08-08T20:27:54.056Z,95.50
2022-08-08T20:30:56.059Z,95.80
2022-08-08T20:34:28.127Z,96.00
2022-08-08T20:37:53.253Z,95.90
2022-08-08T20:40:41.758Z,96.00
2022-08-08T20:43:44.006Z,96.00
2022-08-08T20:46:35.578Z,96.10
2022-08-08T20:49:25.160Z,96.20
2022-08-08T20:57:43.887Z,96.50
2022-08-08T21:00:41.273Z,96.70
2022-08-08T21:03:29.804Z,96.90
2022-08-08T21:06:17.186Z,97.20
2022-08-08T21:09:04.567Z,97.00
2022-08-08T21:12:44.525Z,97.00
2022-08-08T21:16:04.195Z,97.10
2022-08-08T21:18:41.285Z,97.10
2022-08-08T21:21:39.564Z,97.20
2022-08-08T21:24:30.558Z,97.20
2022-08-08T21:32:37.272Z,97.50
2022-08-08T21:36:17.235Z,97.30
2022-08-08T21:38:33.355Z,97.40
2022-08-08T21:41:38.481Z,97.40
2022-08-08T21:48:55.593Z,97.60
2022-08-08T21:54:31.358Z,97.90
2022-08-08T21:55:02.962Z,97.90
2022-08-08T21:58:05.627Z,98.20
2022-08-08T22:00:56.697Z,98.30
2022-08-08T22:08:52.738Z,98.50
2022-08-08T22:12:02.856Z,98.60
2022-08-08T22:14:50.227Z,98.70
2022-08-08T22:18:05.431Z,98.80
2022-08-08T22:21:08.296Z,99.00
2022-08-08T22:23:59.597Z,98.80
2022-08-08T22:27:02.580Z,99.00
2022-08-08T22:30:01.048Z,99.00
2022-08-08T22:32:49.861Z,99.30
2022-08-08T22:36:05.602Z,99.20
2022-08-08T22:38:48.492Z,99.40
2022-08-08T22:41:37.715Z,99.50
2022-08-08T22:44:26.519Z,99.70
2022-08-08T22:47:17.635Z,99.80
2022-08-08T22:50:26.369Z,99.90
2022-08-08T22:58:39.407Z,99.90
2022-08-08T23:02:01.960Z,99.90
2022-08-08T23:04:34.608Z,99.90
2022-08-08T23:07:22.228Z,99.90
2022-08-08T23:10:29.262Z,99.90
2022-08-08T23:13:16.404Z,99.90
2022-08-08T23:16:39.188Z,99.90
2022-08-08T23:19:12.585Z,99.90
2022-08-08T23:22:04.101Z,99.90
2022-08-08T23:24:52.130Z,99.90
2022-08-08T23:27:46.310Z,99.90
2022-08-08T23:30:33.909Z,99.90
2022-08-08T23:34:15.099Z,99.90
2022-08-08T23:36:29.762Z,99.90
2022-08-08T23:39:17.062Z,99.90
2022-08-08T23:49:06.331Z,99.90
2022-08-08T23:50:57.425Z,99.90
2022-08-08T23:54:06.086Z,99.90
2022-08-08T23:56:52.447Z,99.90
